Decoded Metar for LYPG (PODGORICA in SERBIA) (IATA:TGD) | Meteo·Mobile Aviation Weather
aviador You're here:

LYPG Decoded Metar

PODGORICA in SERBIA
Report Time2019-07-16 10:30:00
UTC Time2019-07-16 11:05:33
Flight Rules vfr VFR
Wind020° at 14 kt
W.Decomp.*RWY 36: 13.4 kt HW 4.1 kt RCW
Visibility9999 m
Phenomena:N/A
Clouds:Few 040 Hf
Scattered 080 Hf
Expected CloudBase > 7,600 ft AGL from Temp-Dew spread
CeilingNone
Temp28°C (ISA +13)
Dew Point09°C (30% RH)
Heat Index27.1°C
AAT22.7°C
QNH1007 hPa
Density Alt2,028 ft
Elevation141 ft
Report Wrong Elevation
Raw Report
LYPG 161030Z 02014KT 9999 FEW040 SCT080 28/09 Q1007 NOSIG=

Extra information for LYPG:More info

Metar Taf Metar & Taf Last 4 Metars F.Rules Stats Wind Profile Meteogram Temp Stats Airport Information Weather charts Add Link Nearby VenuesMetar ALERT Operation Metar Decoded Social comments